Terminal Aerodrome Forecast
Issued by NWS

Home | Current Version | Previous Version | Text Only | Print | Product List | Glossary On
Versions: 1 2 3 4 5 6 7 8 9 10 11 12 13 14 15 16 17 18 19
000
FTUS46 KSEW 261100
TAFBFI
TAF
KBFI 261135Z 2612/2712 19017G26KT P6SM VCSH SCT013 BKN030 OVC050
      TEMPO 2612/2616 BKN013 OVC030
     FM262000 17006KT P6SM BKN040 OVC150
     FM270300 17012G18KT P6SM -RA OVC025
      TEMPO 2708/2712 4SM -RA BR OVC015=

USA.gov is the U.S. government's official web portal to all federal, state and local government web resources and services.